Time;durP1;ratioP1;P1;durP2;ratioP2;P2;SDS_P1;SDS_P2;PMS_P1;PMS_P2;Temp;Humidity;BMP_temperature;BMP_pressure;BME280_temperature;BME280_humidity;BME280_pressure;Samples;Min_cycle;Max_cycle;Signal;HPM_P1;HPM_P2
2022/08/13 00:00:00;;;;;;;9.30;7.78;;;;;;;25.71;100.00;99646.91;1832949;78;20965;-71
2022/08/13 00:02:29;;;;;;;11.33;8.10;;;;;;;25.72;100.00;99644.27;1832904;78;21090;-70
2022/08/13 00:05:05;;;;;;;9.53;7.53;;;;;;;25.79;100.00;99644.19;1832838;76;21008;-76
2022/08/13 00:07:33;;;;;;;17.27;8.65;;;;;;;25.81;100.00;99643.77;1834725;78;21036;-74
2022/08/13 00:10:10;;;;;;;10.40;7.72;;;;;;;25.82;100.00;99642.53;1833503;78;20985;-72
2022/08/13 00:15:36;;;;;;;9.75;6.92;;;;;;;25.95;100.00;99617.38;1804633;78;21028;-76
2022/08/13 00:18:17;;;;;;;9.35;7.37;;;;;;;25.97;100.00;99607.26;1834440;78;21057;-73
2022/08/13 00:20:53;;;;;;;13.35;7.70;;;;;;;25.96;100.00;99590.16;1832968;78;21044;-76
2022/08/13 00:23:22;;;;;;;14.90;7.47;;;;;;;25.97;100.00;99576.22;1832946;78;21552;-74
2022/08/13 00:25:52;;;;;;;9.03;7.35;;;;;;;25.99;100.00;99579.42;1833338;78;21499;-72
2022/08/13 00:28:20;;;;;;;10.00;7.00;;;;;;;25.99;100.00;99580.83;1832755;78;21036;-75
2022/08/13 00:30:46;;;;;;;10.32;7.45;;;;;;;26.00;100.00;99579.59;1833916;78;20985;-77
2022/08/13 00:33:23;;;;;;;10.68;6.30;;;;;;;25.99;100.00;99582.24;1834911;78;20977;-72
2022/08/13 00:35:54;;;;;;;11.15;6.83;;;;;;;25.97;100.00;99576.22;1833006;78;21048;-75
2022/08/13 00:38:28;;;;;;;9.35;6.87;;;;;;;25.96;100.00;99564.76;1812627;78;20985;-75
2022/08/13 00:40:58;;;;;;;8.88;6.30;;;;;;;25.89;100.00;99553.56;1833131;78;21517;-76
2022/08/13 00:43:34;;;;;;;9.50;6.97;;;;;;;25.84;100.00;99556.86;1827874;78;20941;-74
2022/08/13 00:46:02;;;;;;;8.60;6.83;;;;;;;25.88;100.00;99557.59;1822810;78;21037;-74
2022/08/13 00:48:43;;;;;;;10.20;6.72;;;;;;;25.84;100.00;99555.45;1822946;78;21505;-75
2022/08/13 00:51:10;;;;;;;10.53;7.53;;;;;;;25.84;100.00;99544.17;1822733;78;21113;-73
2022/08/13 00:53:40;;;;;;;11.93;6.35;;;;;;;25.86;100.00;99537.50;1798088;78;21238;-75
2022/08/13 00:56:08;;;;;;;8.08;6.47;;;;;;;25.86;100.00;99560.06;1838606;77;21420;-76
2022/08/13 00:58:35;;;;;;;11.03;6.67;;;;;;;25.89;100.00;99550.74;1823018;78;20994;-76
2022/08/13 01:01:03;;;;;;;9.68;6.45;;;;;;;25.88;100.00;99538.66;1822617;78;20974;-78
2022/08/13 01:03:34;;;;;;;11.03;6.55;;;;;;;25.89;100.00;99528.17;1821743;78;20991;-74
2022/08/13 01:06:04;;;;;;;13.45;6.20;;;;;;;25.87;100.00;99519.33;1822859;78;21055;-74
2022/08/13 01:08:36;;;;;;;12.60;6.42;;;;;;;25.89;100.00;99521.12;1823179;78;21036;-76
2022/08/13 01:11:09;;;;;;;13.78;6.60;;;;;;;25.88;100.00;99511.84;1822210;78;20998;-74
2022/08/13 01:13:40;;;;;;;13.25;6.58;;;;;;;25.88;100.00;99513.26;1821613;78;20994;-73
2022/08/13 01:16:13;;;;;;;8.30;5.78;;;;;;;25.88;100.00;99512.45;1821345;78;20969;-77
2022/08/13 01:18:48;;;;;;;11.08;6.00;;;;;;;25.87;100.00;99513.08;1823041;78;21790;-75
2022/08/13 01:21:24;;;;;;;7.65;5.75;;;;;;;25.80;100.00;99515.20;1822865;78;21497;-75
2022/08/13 01:23:53;;;;;;;7.80;6.03;;;;;;;25.82;100.00;99522.63;1823228;78;21076;-77
2022/08/13 01:26:21;;;;;;;7.42;6.28;;;;;;;25.84;100.00;99524.42;1822499;78;21021;-77
2022/08/13 01:28:51;;;;;;;10.68;6.87;;;;;;;25.84;100.00;99525.23;1823278;78;21063;-76
2022/08/13 01:31:18;;;;;;;13.93;7.22;;;;;;;25.78;100.00;99518.45;1823546;78;21772;-77
2022/08/13 01:33:59;;;;;;;10.43;6.08;;;;;;;25.78;100.00;99519.86;1823281;78;21466;-77
2022/08/13 01:36:18;;;;;;;8.95;6.20;;;;;;;25.82;100.00;99521.22;1822649;78;21056;-74
2022/08/13 01:38:47;;;;;;;12.28;7.15;;;;;;;25.74;100.00;99519.91;1823006;78;21475;-76
2022/08/13 01:41:13;;;;;;;14.45;6.65;;;;;;;25.72;100.00;99512.50;1822969;78;20986;-71
2022/08/13 01:43:41;;;;;;;9.30;6.03;;;;;;;25.68;100.00;99506.70;1823110;78;21101;-78
2022/08/13 01:46:10;;;;;;;10.35;6.05;;;;;;;25.69;100.00;99513.33;1821687;78;21029;-74
2022/08/13 01:51:32;;;;;;;14.10;6.70;;;;;;;25.59;100.00;99519.91;1821085;78;21989;-74
2022/08/13 01:54:01;;;;;;;9.30;6.87;;;;;;;25.65;100.00;99518.23;1791913;78;21033;-71
2022/08/13 01:56:30;;;;;;;13.25;6.95;;;;;;;25.65;100.00;99511.19;1822800;78;21134;-72
2022/08/13 01:59:00;;;;;;;12.95;7.17;;;;;;;25.64;100.00;99502.55;1822432;78;20974;-73
2022/08/13 02:01:31;;;;;;;6.33;5.37;;;;;;;25.63;100.00;99500.91;1821609;78;21014;-75
2022/08/13 02:04:01;;;;;;;7.92;5.65;;;;;;;25.47;100.00;99500.91;1821940;78;21052;-76
2022/08/13 02:06:31;;;;;;;10.30;6.60;;;;;;;25.43;100.00;99495.95;1821743;78;21194;-76
2022/08/13 02:09:01;;;;;;;11.50;5.92;;;;;;;25.48;100.00;99506.76;1821496;78;21056;-76
2022/08/13 02:11:32;;;;;;;12.65;6.12;;;;;;;25.51;100.00;99505.91;1821207;78;20980;-77
2022/08/13 02:14:02;;;;;;;8.85;5.50;;;;;;;25.50;100.00;99509.93;1822040;78;21021;-75
2022/08/13 02:16:35;;;;;;;9.60;6.40;;;;;;;25.48;100.00;99501.72;1821318;78;21446;-75
2022/08/13 02:19:08;;;;;;;10.57;5.67;;;;;;;25.46;100.00;99504.97;1821670;78;21096;-73
2022/08/13 02:21:38;;;;;;;15.15;6.22;;;;;;;25.43;100.00;99504.41;1821492;78;21903;-72
2022/08/13 02:24:08;;;;;;;10.15;6.12;;;;;;;25.49;100.00;99519.63;1822238;78;20990;-77
2022/08/13 02:26:46;;;;;;;9.00;5.75;;;;;;;25.51;100.00;99515.78;1814835;78;21481;-77
2022/08/13 02:29:12;;;;;;;8.85;6.15;;;;;;;25.51;100.00;99505.91;1820924;78;21521;-77
2022/08/13 02:31:42;;;;;;;8.78;5.22;;;;;;;25.55;100.00;99502.23;1821620;78;21596;-74
2022/08/13 02:34:13;;;;;;;11.17;5.83;;;;;;;25.49;100.00;99490.63;1816387;78;21052;-75
2022/08/13 02:36:46;;;;;;;12.13;6.03;;;;;;;25.49;100.00;99486.39;1818270;78;20985;-75
2022/08/13 02:39:14;;;;;;;11.57;6.50;;;;;;;25.50;100.00;99481.73;1823360;78;20986;-72
2022/08/13 02:41:43;;;;;;;11.45;6.12;;;;;;;25.50;100.00;99469.05;1823056;78;21036;-76
2022/08/13 02:44:17;;;;;;;10.05;6.12;;;;;;;25.49;100.00;99463.23;1820102;78;21727;-75
2022/08/13 02:46:49;;;;;;;12.23;6.03;;;;;;;25.49;100.00;99455.38;1782165;80;21094;-75
2022/08/13 02:49:21;;;;;;;14.60;6.37;;;;;;;25.43;100.00;99453.66;1805686;79;21009;-75
2022/08/13 02:51:51;;;;;;;8.55;5.97;;;;;;;25.40;100.00;99455.29;1783556;79;21047;-75
2022/08/13 02:54:20;;;;;;;8.68;5.50;;;;;;;25.37;100.00;99456.75;1778353;79;21069;-75
2022/08/13 02:56:47;;;;;;;11.78;6.25;;;;;;;25.34;100.00;99456.19;1807533;79;21034;-78
2022/08/13 02:59:17;;;;;;;8.25;5.40;;;;;;;25.33;100.00;99455.41;1807421;79;21030;-76
2022/08/13 03:01:46;;;;;;;9.75;6.17;;;;;;;25.35;100.00;99444.48;1791136;79;21040;-77
2022/08/13 03:04:15;;;;;;;12.20;6.67;;;;;;;25.32;100.00;99443.93;1785364;79;20988;-76
2022/08/13 03:06:45;;;;;;;9.28;6.15;;;;;;;25.32;100.00;99450.20;1782863;80;21016;-73
2022/08/13 03:09:11;;;;;;;11.08;6.72;;;;;;;25.27;100.00;99454.27;1785899;80;21027;-77
2022/08/13 03:11:42;;;;;;;12.20;5.47;;;;;;;25.28;100.00;99447.43;1785523;79;21047;-75
2022/08/13 03:14:09;;;;;;;9.43;6.28;;;;;;;25.29;100.00;99443.38;1792611;79;22123;-72
2022/08/13 03:16:39;;;;;;;9.55;6.05;;;;;;;25.34;100.00;99454.78;1807621;79;21031;-77
2022/08/13 03:19:06;;;;;;;10.08;5.95;;;;;;;25.37;100.00;99444.06;1807731;79;20974;-74
2022/08/13 03:21:43;;;;;;;12.43;5.75;;;;;;;25.39;100.00;99453.70;1807549;79;20971;-73
2022/08/13 03:24:18;;;;;;;11.97;6.10;;;;;;;25.39;100.00;99456.52;1806042;79;21138;-71
2022/08/13 03:26:52;;;;;;;12.60;7.05;;;;;;;25.39;100.00;99455.72;1804933;79;38465;-73
2022/08/13 03:29:24;;;;;;;12.95;6.30;;;;;;;25.37;100.00;99466.02;1807701;79;21057;-75
2022/08/13 03:31:51;;;;;;;10.03;5.37;;;;;;;25.33;100.00;99466.69;1780567;79;20998;-72
2022/08/13 03:34:20;;;;;;;10.90;6.62;;;;;;;25.36;100.00;99470.06;1806148;79;21013;-74
2022/08/13 03:36:47;;;;;;;11.70;6.10;;;;;;;25.33;100.00;99477.16;1808079;79;21264;-76
2022/08/13 03:39:13;;;;;;;15.68;6.20;;;;;;;25.34;100.00;99476.73;1807308;79;21074;-74
2022/08/13 03:41:42;;;;;;;10.08;5.75;;;;;;;25.35;100.00;99480.36;1808072;79;21478;-74
2022/08/13 03:44:10;;;;;;;9.88;5.83;;;;;;;25.20;100.00;99484.76;1806917;78;21041;-73
2022/08/13 03:46:38;;;;;;;11.50;6.22;;;;;;;25.24;100.00;99492.57;1799248;79;21023;-76
2022/08/13 03:49:10;;;;;;;14.07;7.25;;;;;;;25.15;100.00;99486.03;1785822;80;21894;-74
2022/08/13 03:51:39;;;;;;;16.87;6.45;;;;;;;25.14;100.00;99476.59;1785374;80;21004;-72
2022/08/13 03:54:15;;;;;;;13.50;6.00;;;;;;;25.12;100.00;99479.84;1793666;79;21030;-76
2022/08/13 03:56:52;;;;;;;11.05;6.40;;;;;;;25.11;100.00;99483.86;1773884;80;21027;-72
2022/08/13 03:59:24;;;;;;;17.40;6.97;;;;;;;25.09;100.00;99485.52;1785431;79;21024;-75
2022/08/13 04:01:51;;;;;;;10.58;6.67;;;;;;;25.21;100.00;99487.78;1785389;79;21137;-79
2022/08/13 04:04:18;;;;;;;12.55;5.85;;;;;;;25.06;100.00;99501.86;1786193;79;21043;-75
2022/08/13 04:06:55;;;;;;;11.83;7.10;;;;;;;25.14;100.00;99507.59;1785895;80;21012;-75
2022/08/13 04:09:27;;;;;;;15.53;6.72;;;;;;;25.08;100.00;99510.69;1785203;80;21024;-71
2022/08/13 04:11:59;;;;;;;13.48;6.05;;;;;;;25.19;100.00;99513.37;1785455;80;20980;-78
2022/08/13 04:14:25;;;;;;;14.93;6.75;;;;;;;25.14;100.00;99508.40;1787184;79;21617;-75
2022/08/13 04:16:53;;;;;;;10.50;6.35;;;;;;;25.21;100.00;99517.38;1782284;80;21034;-73
2022/08/13 04:19:36;;;;;;;13.10;6.60;;;;;;;25.20;100.00;99516.39;1781794;80;21008;-74
2022/08/13 04:22:15;;;;;;;16.70;7.17;;;;;;;25.13;100.00;99522.28;1762777;80;21539;-73
2022/08/13 04:24:50;;;;;;;11.33;6.60;;;;;;;25.13;100.00;99520.09;1771765;80;21014;-73
2022/08/13 04:27:27;;;;;;;13.90;5.92;;;;;;;25.10;100.00;99522.32;1770850;80;21833;-75
2022/08/13 04:29:55;;;;;;;13.13;7.03;;;;;;;25.11;100.00;99523.94;1738339;80;21042;-75
2022/08/13 04:32:28;;;;;;;10.08;6.35;;;;;;;25.14;100.00;99521.69;1806522;79;20970;-75
2022/08/13 04:35:01;;;;;;;13.40;6.47;;;;;;;25.11;100.00;99519.71;1792757;79;21059;-76
2022/08/13 04:37:38;;;;;;;14.13;6.17;;;;;;;25.15;100.00;99517.63;1782068;80;21021;-74
2022/08/13 04:40:10;;;;;;;9.30;6.12;;;;;;;25.07;100.00;99522.56;1785614;80;21181;-72
2022/08/13 04:43:04;;;;;;;13.00;7.10;;;;;;;24.62;100.00;99536.06;1779323;79;21003;-75
2022/08/13 04:45:33;;;;;;;16.27;7.60;;;;;;;24.79;100.00;99525.84;1813676;77;21049;-73
2022/08/13 04:48:12;;;;;;;16.35;6.92;;;;;;;24.88;100.00;99524.75;1839465;77;21093;-75
2022/08/13 04:50:42;;;;;;;15.53;7.37;;;;;;;24.88;100.00;99523.95;1845815;77;20984;-73
2022/08/13 04:53:25;;;;;;;14.90;6.70;;;;;;;24.70;100.00;99524.95;1850910;76;21473;-71
2022/08/13 04:56:01;;;;;;;20.73;7.87;;;;;;;24.69;100.00;99517.70;1831455;76;20988;-74
2022/08/13 04:58:33;;;;;;;14.40;6.10;;;;;;;24.82;100.00;99511.55;1839875;78;21652;-76
2022/08/13 05:01:03;;;;;;;16.40;6.90;;;;;;;24.82;100.00;99527.84;1834425;76;21042;-72
2022/08/13 05:03:33;;;;;;;12.63;7.05;;;;;;;24.77;100.00;99529.08;1825198;76;20972;-73
2022/08/13 05:05:59;;;;;;;14.13;6.87;;;;;;;24.80;100.00;99517.60;1792680;78;21943;-76
2022/08/13 05:08:31;;;;;;;13.85;6.60;;;;;;;24.78;100.00;99513.80;1836774;78;20949;-71
2022/08/13 05:10:58;;;;;;;12.85;6.78;;;;;;;24.75;100.00;99509.01;1813573;77;20993;-74
2022/08/13 05:13:37;;;;;;;11.12;6.53;;;;;;;24.67;100.00;99508.27;1810834;78;21027;-73
2022/08/13 05:16:06;;;;;;;14.75;5.70;;;;;;;24.71;100.00;99504.01;1799702;78;21029;-73
2022/08/13 05:18:38;;;;;;;12.73;6.62;;;;;;;24.71;100.00;99508.23;1808912;78;21669;-72
2022/08/13 05:21:06;;;;;;;14.50;6.72;;;;;;;24.73;100.00;99494.54;1816156;78;21005;-75
2022/08/13 05:23:38;;;;;;;13.38;7.03;;;;;;;24.77;100.00;99493.09;1819944;78;21066;-73
2022/08/13 05:26:05;;;;;;;13.72;6.70;;;;;;;24.77;100.00;99492.47;1828236;78;20983;-77
2022/08/13 05:28:39;;;;;;;11.45;6.75;;;;;;;24.79;100.00;99497.08;1827094;78;21077;-76
2022/08/13 05:31:06;;;;;;;14.53;7.00;;;;;;;24.83;100.00;99496.23;1835620;76;21430;-77
2022/08/13 05:33:52;;;;;;;11.85;6.55;;;;;;;24.84;100.00;99502.08;1810913;78;21017;-73
2022/08/13 05:36:28;;;;;;;9.88;6.42;;;;;;;24.94;100.00;99509.64;1793503;78;20969;-76
2022/08/13 05:39:00;;;;;;;16.40;7.15;;;;;;;25.02;100.00;99503.30;1779103;78;21047;-74
2022/08/13 05:41:28;;;;;;;10.60;6.08;;;;;;;25.04;100.00;99498.83;1823411;78;21014;-75
2022/08/13 05:44:12;;;;;;;11.85;6.87;;;;;;;25.07;100.00;99500.63;1817215;78;21733;-74
2022/08/13 05:46:37;;;;;;;13.40;6.87;;;;;;;25.08;100.00;99490.34;1817409;77;21108;-74
2022/08/13 05:49:22;;;;;;;12.50;7.35;;;;;;;25.18;100.00;99493.45;1807068;77;21002;-72
2022/08/13 05:51:52;;;;;;;13.22;7.05;;;;;;;25.27;100.00;99497.36;1808745;77;21049;-72
2022/08/13 05:54:32;;;;;;;16.52;7.12;;;;;;;25.20;100.00;99488.98;1809564;77;20991;-74
2022/08/13 05:57:03;;;;;;;10.60;6.83;;;;;;;25.20;100.00;99496.03;1778138;79;21527;-71
2022/08/13 06:05:05;;;;;;;13.83;6.92;;;;;;;25.24;100.00;99488.34;1745960;82;21065;-76
2022/08/13 06:07:39;;;;;;;9.55;6.97;;;;;;;25.35;100.00;99478.31;1783994;77;20994;-73
2022/08/13 06:10:08;;;;;;;14.73;7.58;;;;;;;25.35;100.00;99488.81;1794783;78;21119;-72
2022/08/13 06:12:41;;;;;;;16.15;7.90;;;;;;;25.39;100.00;99492.37;1795298;79;21078;-74
2022/08/13 06:15:30;;;;;;;12.40;6.97;;;;;;;25.55;100.00;99494.58;1813900;78;21019;-74
2022/08/13 06:21:07;;;;;;;10.60;7.45;;;;;;;25.78;100.00;99493.06;1787319;80;20976;-75
2022/08/13 06:23:39;;;;;;;12.67;7.90;;;;;;;25.83;100.00;99489.76;1785904;80;21441;-68
2022/08/13 06:26:14;;;;;;;11.85;7.50;;;;;;;25.91;100.00;99493.89;1784980;80;21021;-73
2022/08/13 06:28:41;;;;;;;11.22;7.65;;;;;;;25.98;100.00;99493.78;1789843;80;22155;-72
2022/08/13 06:31:16;;;;;;;14.15;7.50;;;;;;;26.04;100.00;99496.30;1779651;80;21289;-77
2022/08/13 06:33:52;;;;;;;12.45;8.35;;;;;;;25.96;100.00;99494.81;1784157;78;21007;-75
2022/08/13 06:36:29;;;;;;;12.90;8.68;;;;;;;25.97;100.00;99500.63;1810618;78;21000;-76
2022/08/13 06:39:01;;;;;;;16.52;7.33;;;;;;;26.01;100.00;99496.55;1792189;80;20937;-72
2022/08/13 06:41:32;;;;;;;13.05;8.03;;;;;;;26.06;100.00;99490.22;1792134;80;21039;-75
2022/08/13 06:47:12;;;;;;;14.47;8.30;;;;;;;26.17;100.00;99495.06;1797034;78;21031;-76
2022/08/13 06:49:43;;;;;;;10.20;7.10;;;;;;;26.23;100.00;99491.16;1851428;77;21532;-75
2022/08/13 06:52:28;;;;;;;16.73;7.72;;;;;;;26.27;100.00;99491.09;1851201;77;20969;-75
2022/08/13 06:55:02;;;;;;;13.80;7.92;;;;;;;26.32;100.00;99498.47;1851850;77;21008;-77
2022/08/13 06:57:38;;;;;;;11.97;8.10;;;;;;;26.40;100.00;99485.64;1849723;77;21461;-76
2022/08/13 07:00:09;;;;;;;11.00;7.90;;;;;;;26.55;100.00;99479.92;1851433;77;20977;-77
2022/08/13 07:02:35;;;;;;;13.43;8.63;;;;;;;26.69;100.00;99475.23;1851993;77;21088;-74
2022/08/13 07:05:17;;;;;;;11.70;8.48;;;;;;;26.72;100.00;99468.72;1848094;77;21001;-73
2022/08/13 07:07:59;;;;;;;16.80;8.70;;;;;;;26.76;100.00;99465.22;1850936;77;21009;-73
2022/08/13 07:10:36;;;;;;;15.30;9.05;;;;;;;26.85;100.00;99464.02;1848711;77;20877;-78
2022/08/13 07:13:05;;;;;;;10.93;8.83;;;;;;;26.97;100.00;99465.39;1850658;77;21020;-77
2022/08/13 07:15:37;;;;;;;13.98;8.43;;;;;;;27.08;100.00;99454.51;1850741;77;21687;-76
2022/08/13 07:18:13;;;;;;;14.10;8.78;;;;;;;27.13;100.00;99452.58;1845808;77;21043;-73
2022/08/13 07:20:40;;;;;;;17.32;8.70;;;;;;;27.20;100.00;99451.63;1851101;77;21059;-74
2022/08/13 07:23:13;;;;;;;14.25;8.58;;;;;;;27.26;100.00;99444.86;1831750;77;20988;-76
2022/08/13 07:25:44;;;;;;;17.02;9.20;;;;;;;27.28;100.00;99446.64;1852527;76;20980;-75
2022/08/13 07:28:15;;;;;;;16.48;8.20;;;;;;;27.34;100.00;99449.11;1851834;76;21184;-77
2022/08/13 07:30:46;;;;;;;15.07;8.63;;;;;;;27.37;100.00;99450.25;1851347;77;20971;-72
2022/08/13 07:33:22;;;;;;;14.05;8.20;;;;;;;27.40;100.00;99447.34;1841260;77;20991;-74
2022/08/13 07:35:54;;;;;;;15.35;9.63;;;;;;;27.44;100.00;99448.08;1834316;78;21033;-71
2022/08/13 07:38:27;;;;;;;12.82;8.85;;;;;;;27.43;100.00;99457.78;1823110;78;20994;-76
2022/08/13 07:40:59;;;;;;;13.68;9.03;;;;;;;27.60;100.00;99466.31;1840269;78;20955;-74
2022/08/13 07:43:26;;;;;;;13.10;8.83;;;;;;;27.25;100.00;99476.56;1823172;78;21012;-75
2022/08/13 07:46:10;;;;;;;17.35;9.40;;;;;;;27.28;100.00;99483.39;1840421;78;21007;-76
2022/08/13 07:48:51;;;;;;;11.65;8.83;;;;;;;27.49;100.00;99474.23;1821807;78;21453;-72
2022/08/13 07:51:22;;;;;;;27.90;9.50;;;;;;;27.40;100.00;99476.27;1840258;78;21003;-76
2022/08/13 07:53:54;;;;;;;14.07;9.10;;;;;;;27.31;100.00;99471.20;1827031;78;21139;-75
2022/08/13 07:56:32;;;;;;;16.80;9.18;;;;;;;27.22;100.00;99466.13;1840422;78;20959;-73
2022/08/13 07:59:04;;;;;;;11.80;9.03;;;;;;;27.11;100.00;99473.42;1840431;78;21432;-74
2022/08/13 08:01:33;;;;;;;16.23;9.23;;;;;;;26.97;100.00;99468.84;1840584;78;21478;-73
2022/08/13 08:04:05;;;;;;;15.43;9.35;;;;;;;26.90;100.00;99476.05;1826670;78;21048;-77
2022/08/13 08:07:01;;;;;;;15.78;9.23;;;;;;;26.80;100.00;99467.34;1840484;77;20971;-71
2022/08/13 08:09:34;;;;;;;13.13;8.70;;;;;;;26.63;100.00;99472.10;1840589;77;21070;-76
2022/08/13 08:14:52;;;;;;;14.85;10.08;;;;;;;26.46;100.00;99467.78;1840396;78;20975;-70
2022/08/13 08:17:23;;;;;;;22.82;8.95;;;;;;;26.35;100.00;99476.45;1840618;78;21053;-74
2022/08/13 08:19:59;;;;;;;21.97;10.10;;;;;;;26.26;100.00;99480.41;1812991;78;21007;-75
2022/08/13 08:22:28;;;;;;;17.70;9.48;;;;;;;26.25;100.00;99466.13;1840560;78;20975;-74
2022/08/13 08:24:56;;;;;;;19.10;10.32;;;;;;;26.24;100.00;99456.84;1840236;78;20956;-71
2022/08/13 08:27:25;;;;;;;30.85;9.93;;;;;;;26.15;100.00;99464.28;1840803;78;21053;-75
2022/08/13 08:29:53;;;;;;;13.03;9.03;;;;;;;26.11;100.00;99472.80;1837164;78;21038;-71
2022/08/13 08:32:22;;;;;;;13.45;9.15;;;;;;;26.10;100.00;99483.91;1840532;78;22200;-73
2022/08/13 08:34:56;;;;;;;17.70;10.05;;;;;;;26.09;100.00;99492.18;1840398;78;20999;-72
2022/08/13 08:43:02;;;;;;;17.73;9.53;;;;;;;26.00;100.00;99489.30;1840415;78;20999;-74
2022/08/13 08:45:31;;;;;;;15.05;10.28;;;;;;;25.88;100.00;99495.52;1840743;78;21113;-75
2022/08/13 08:48:05;;;;;;;14.95;10.45;;;;;;;26.00;100.00;99489.30;1849263;76;21534;-73
2022/08/13 08:50:34;;;;;;;19.50;9.93;;;;;;;26.07;100.00;99490.39;1858254;77;21025;-75
2022/08/13 08:53:20;;;;;;;16.50;10.48;;;;;;;26.10;100.00;99486.73;1853868;77;20986;-72
2022/08/13 08:55:51;;;;;;;17.73;9.85;;;;;;;26.05;100.00;99488.64;1858263;77;21025;-74
2022/08/13 08:58:19;;;;;;;18.15;11.40;;;;;;;26.04;100.00;99494.08;1857802;77;21971;-75
2022/08/13 09:00:55;;;;;;;16.87;10.32;;;;;;;26.19;100.00;99496.05;1853795;77;21025;-74
2022/08/13 09:03:23;;;;;;;15.60;10.43;;;;;;;26.18;100.00;99490.23;1858001;77;21467;-75
2022/08/13 09:05:52;;;;;;;15.45;10.95;;;;;;;26.21;100.00;99490.17;1816062;78;21465;-74
2022/08/13 09:08:19;;;;;;;14.60;9.90;;;;;;;26.20;100.00;99492.82;1858238;77;21470;-74
2022/08/13 09:10:52;;;;;;;18.48;10.63;;;;;;;26.22;100.00;99491.76;1857978;77;21222;-74
2022/08/13 09:13:21;;;;;;;14.63;10.45;;;;;;;26.31;100.00;99489.80;1827171;77;22408;-73
2022/08/13 09:15:50;;;;;;;13.72;10.43;;;;;;;26.28;100.00;99475.73;1793487;78;20993;-76
2022/08/13 09:18:19;;;;;;;20.45;11.30;;;;;;;26.20;100.00;99467.42;1858216;77;20966;-74
2022/08/13 09:20:49;;;;;;;27.05;12.30;;;;;;;26.27;100.00;99462.86;1857762;77;20975;-74
2022/08/13 09:23:21;;;;;;;17.77;11.48;;;;;;;26.14;100.00;99459.23;1855568;77;21475;-72
2022/08/13 09:25:51;;;;;;;19.23;10.58;;;;;;;26.13;100.00;99461.89;1789088;78;21502;-75
2022/08/13 09:28:26;;;;;;;16.87;11.12;;;;;;;26.12;100.00;99461.08;1844458;77;21494;-72
2022/08/13 09:30:54;;;;;;;16.62;11.73;;;;;;;26.11;100.00;99460.10;1858093;77;20996;-74
2022/08/13 09:33:28;;;;;;;21.25;11.88;;;;;;;26.29;100.00;99451.31;1846973;77;21131;-74
2022/08/13 09:35:58;;;;;;;17.25;11.95;;;;;;;26.28;100.00;99440.45;1850615;77;21050;-73
2022/08/13 09:38:28;;;;;;;17.65;10.85;;;;;;;26.31;100.00;99439.58;1847668;77;21053;-75
2022/08/13 09:41:01;;;;;;;19.52;12.70;;;;;;;26.32;100.00;99436.36;1844764;75;21062;-75
2022/08/13 09:43:38;;;;;;;24.07;12.58;;;;;;;26.07;100.00;99431.94;1851348;77;21010;-72
2022/08/13 09:46:14;;;;;;;20.37;11.43;;;;;;;26.24;100.00;99424.98;1854660;77;21012;-76
2022/08/13 09:48:42;;;;;;;15.28;11.95;;;;;;;26.39;100.00;99426.18;1836568;77;21228;-75
2022/08/13 09:51:13;;;;;;;20.62;12.40;;;;;;;26.41;100.00;99423.09;1828227;78;21038;-72
2022/08/13 09:53:52;;;;;;;20.50;11.30;;;;;;;26.43;100.00;99425.48;1829301;78;21028;-74
2022/08/13 09:56:17;;;;;;;20.30;10.98;;;;;;;26.55;100.00;99428.28;1823396;78;20981;-74
2022/08/13 09:58:50;;;;;;;16.93;11.63;;;;;;;26.59;100.00;99429.02;1831108;78;21002;-75
2022/08/13 10:01:13;;;;;;;17.48;12.30;;;;;;;26.68;100.00;99427.82;1833879;78;21107;-74
2022/08/13 10:03:48;;;;;;;15.40;12.20;;;;;;;26.76;100.00;99431.92;1826845;78;21430;-76
2022/08/13 10:06:23;;;;;;;20.17;12.95;;;;;;;26.78;100.00;99431.69;1827548;78;20977;-75
2022/08/13 10:08:53;;;;;;;21.73;13.28;;;;;;;26.84;100.00;99425.70;1834070;78;21414;-75
2022/08/13 10:11:22;;;;;;;16.65;12.18;;;;;;;26.93;100.00;99427.14;1833706;78;20981;-74
2022/08/13 10:13:59;;;;;;;17.12;12.25;;;;;;;27.01;100.00;99434.23;1839513;78;21195;-73
2022/08/13 10:16:36;;;;;;;18.17;12.30;;;;;;;26.97;100.00;99426.46;1834419;78;20989;-74
2022/08/13 10:19:08;;;;;;;24.45;12.78;;;;;;;27.18;100.00;99409.66;1839721;78;20989;-75
2022/08/13 10:21:33;;;;;;;19.10;12.35;;;;;;;27.27;100.00;99413.31;1839763;78;21386;-73
2022/08/13 10:24:05;;;;;;;17.07;12.25;;;;;;;27.32;100.00;99407.14;1840419;78;21032;-72
2022/08/13 10:26:40;;;;;;;19.12;11.35;;;;;;;27.34;100.00;99402.45;1838855;78;21029;-71
2022/08/13 10:29:12;;;;;;;13.45;11.65;;;;;;;27.51;100.00;99399.03;1839146;78;21469;-73
2022/08/13 10:31:39;;;;;;;12.93;10.68;;;;;;;27.64;100.00;99399.12;1839348;78;21020;-73
2022/08/13 10:34:09;;;;;;;19.10;11.85;;;;;;;27.68;100.00;99397.02;1839085;78;20958;-72
2022/08/13 10:36:43;;;;;;;20.35;12.03;;;;;;;27.66;100.00;99399.48;1831457;78;21014;-74
2022/08/13 10:39:14;;;;;;;17.75;11.22;;;;;;;27.93;100.00;99395.60;1825524;77;21249;-73
2022/08/13 10:41:47;;;;;;;23.92;10.63;;;;;;;28.06;100.00;99397.08;1751758;78;21059;-72
2022/08/13 10:44:30;;;;;;;18.55;11.10;;;;;;;28.17;100.00;99390.34;1833288;78;21048;-73
2022/08/13 10:47:03;;;;;;;15.60;10.50;;;;;;;28.30;100.00;99389.00;1831920;77;20999;-75
2022/08/13 10:49:39;;;;;;;17.48;10.08;;;;;;;28.47;100.00;99386.14;1821951;77;21027;-71
2022/08/13 10:52:14;;;;;;;16.82;10.63;;;;;;;28.52;100.00;99388.43;1834370;78;21060;-75
2022/08/13 10:55:22;;;;;;;18.57;10.08;;;;;;;28.73;100.00;99376.31;1807897;77;21002;-75
2022/08/13 10:57:57;;;;;;;13.25;9.60;;;;;;;28.79;100.00;99382.39;1837495;77;21100;-75
2022/08/13 11:00:26;;;;;;;19.17;10.80;;;;;;;28.88;100.00;99381.70;1840384;77;21539;-75
2022/08/13 11:03:01;;;;;;;16.93;10.68;;;;;;;28.96;100.00;99378.05;1839332;77;21097;-72
2022/08/13 11:06:14;;;;;;;17.32;10.13;;;;;;;29.24;100.00;99377.66;1840574;77;20989;-73
2022/08/13 11:09:10;;;;;;;;;;;;;;;;;;;;;
2022/08/13 11:11:37;;;;;;;13.70;9.15;;;;;;;29.65;100.00;99370.88;1841607;77;20957;-71
2022/08/13 11:14:22;;;;;;;22.15;10.40;;;;;;;29.82;100.00;99366.49;1844332;77;21595;-75
2022/08/13 11:16:58;;;;;;;11.57;10.15;;;;;;;29.82;100.00;99365.08;1839433;77;20999;-70
2022/08/13 11:19:34;;;;;;;14.38;9.90;;;;;;;30.07;100.00;99361.36;1842019;77;21042;-69
2022/08/13 11:21:59;;;;;;;15.43;10.10;;;;;;;30.16;100.00;99349.91;1821967;77;21006;-72
2022/08/13 11:24:35;;;;;;;17.35;10.48;;;;;;;30.31;100.00;99349.59;1847832;77;21666;-72
2022/08/13 11:27:34;;;;;;;14.85;9.15;;;;;;;30.35;100.00;99340.95;1845138;77;21039;-73
2022/08/13 11:30:09;;;;;;;16.85;9.38;;;;;;;30.49;100.00;99340.40;1840459;77;21361;-72
2022/08/13 11:32:36;;;;;;;16.15;10.13;;;;;;;30.67;100.00;99339.56;1844921;77;21123;-76
2022/08/13 11:35:11;;;;;;;18.87;9.93;;;;;;;30.50;100.00;99336.94;1836092;77;21037;-74
2022/08/13 11:37:42;;;;;;;17.35;11.38;;;;;;;30.77;100.00;99334.09;1831736;76;21010;-75
2022/08/13 11:40:13;;;;;;;11.73;9.85;;;;;;;30.85;100.00;99328.94;1817722;77;21041;-74
2022/08/13 11:42:44;;;;;;;16.00;10.15;;;;;;;30.90;100.00;99332.60;1850485;77;20932;-74
2022/08/13 11:45:20;;;;;;;14.98;9.93;;;;;;;30.89;100.00;99320.28;1845435;77;21005;-73
2022/08/13 11:48:05;;;;;;;19.45;10.32;;;;;;;30.92;100.00;99332.13;1850641;77;21331;-74
2022/08/13 11:50:35;;;;;;;18.45;9.78;;;;;;;30.97;100.00;99324.42;1858320;77;21037;-72
2022/08/13 11:53:07;;;;;;;19.25;9.48;;;;;;;30.98;100.00;99321.11;1833788;78;21617;-70
2022/08/13 11:55:41;;;;;;;11.55;8.93;;;;;;;31.07;100.00;99320.36;1828810;78;21473;-75
2022/08/13 11:58:10;;;;;;;16.57;9.03;;;;;;;31.04;100.00;99329.83;1833059;78;21098;-76
2022/08/13 12:00:55;;;;;;;21.35;9.65;;;;;;;31.13;100.00;99322.59;1832875;78;21084;-72
2022/08/13 12:03:23;;;;;;;16.25;10.18;;;;;;;31.19;100.00;99322.92;1831280;78;21296;-71
2022/08/13 12:05:58;;;;;;;14.15;10.03;;;;;;;31.23;100.00;99325.63;1832471;78;21052;-72